createdAt,value
2018-11-11T00:03:48.179Z,13.62
2018-11-11T00:06:17.471Z,13.71
2018-11-11T00:08:46.373Z,13.70
2018-11-11T00:11:16.382Z,13.67
2018-11-11T00:13:45.730Z,13.70
2018-11-11T00:16:14.786Z,13.72
2018-11-11T00:18:43.852Z,13.77
2018-11-11T00:21:13.365Z,13.76
2018-11-11T00:23:42.611Z,13.73
2018-11-11T00:26:11.873Z,13.73
2018-11-11T00:28:41.417Z,13.76
2018-11-11T00:31:10.513Z,13.76
2018-11-11T00:33:41.248Z,13.79
2018-11-11T00:36:10.618Z,13.77
2018-11-11T00:38:40.010Z,13.80
2018-11-11T00:41:09.020Z,13.81
2018-11-11T00:43:38.384Z,13.83
2018-11-11T00:46:08.763Z,13.83
2018-11-11T00:48:37.639Z,13.83
2018-11-11T00:51:07.699Z,13.85
2018-11-11T00:53:43.163Z,13.87
2018-11-11T00:56:12.195Z,13.86
2018-11-11T00:58:41.651Z,13.84
2018-11-11T01:01:10.664Z,13.79
2018-11-11T01:03:40.418Z,13.84
2018-11-11T01:06:28.462Z,13.89
2018-11-11T01:08:57.405Z,13.79
2018-11-11T01:11:26.809Z,13.83
2018-11-11T01:13:55.942Z,13.83
2018-11-11T01:16:24.982Z,13.85
2018-11-11T01:18:54.326Z,13.81
2018-11-11T01:21:23.848Z,13.79
2018-11-11T01:23:53.467Z,13.80
2018-11-11T01:26:22.816Z,13.76
2018-11-11T01:28:52.554Z,13.76
2018-11-11T01:31:21.467Z,13.75
2018-11-11T01:33:50.690Z,13.77
2018-11-11T01:36:19.673Z,13.77
2018-11-11T01:38:48.658Z,13.75
2018-11-11T01:41:18.019Z,13.79
2018-11-11T01:43:46.971Z,13.81
2018-11-11T01:46:16.019Z,13.80
2018-11-11T01:48:45.407Z,13.88
2018-11-11T01:51:25.948Z,13.79
2018-11-11T01:53:55.355Z,13.72
2018-11-11T01:56:24.258Z,13.73
2018-11-11T01:58:53.298Z,13.73
2018-11-11T02:01:22.677Z,13.79
2018-11-11T02:03:52.642Z,13.70
2018-11-11T02:06:21.692Z,13.74
2018-11-11T02:08:50.980Z,13.86
2018-11-11T02:11:20.054Z,13.77
2018-11-11T02:13:49.057Z,13.77
2018-11-11T02:16:18.226Z,13.68
2018-11-11T02:18:47.106Z,13.66
2018-11-11T02:21:16.246Z,13.69
2018-11-11T02:23:45.718Z,13.69
2018-11-11T02:26:15.403Z,13.60
2018-11-11T02:28:44.502Z,13.61
2018-11-11T02:31:13.784Z,13.61
2018-11-11T02:33:42.737Z,13.59
2018-11-11T02:36:11.648Z,13.54
2018-11-11T02:38:40.760Z,13.59
2018-11-11T02:41:09.702Z,13.61
2018-11-11T02:43:39.161Z,13.46
2018-11-11T02:48:42.555Z,13.47
2018-11-11T02:51:15.645Z,13.43
2018-11-11T02:53:44.476Z,13.39
2018-11-11T02:56:19.807Z,13.37
2018-11-11T02:58:50.003Z,13.33
2018-11-11T03:01:19.264Z,13.32
2018-11-11T03:03:48.268Z,13.32
2018-11-11T03:06:18.084Z,13.31
2018-11-11T03:08:47.097Z,13.29
2018-11-11T03:11:17.618Z,13.27
2018-11-11T03:13:46.599Z,13.26
2018-11-11T03:16:15.506Z,13.29
2018-11-11T03:18:44.879Z,13.32
2018-11-11T03:21:13.965Z,13.26
2018-11-11T03:23:42.916Z,13.26
2018-11-11T03:26:17.495Z,13.24
2018-11-11T03:28:46.515Z,13.27
2018-11-11T03:31:15.568Z,13.27
2018-11-11T03:33:44.526Z,13.25
2018-11-11T03:36:13.406Z,13.23
2018-11-11T03:38:47.349Z,13.24
2018-11-11T03:41:16.339Z,13.21
2018-11-11T03:43:45.934Z,13.24
2018-11-11T03:46:15.296Z,13.22
2018-11-11T03:48:44.269Z,13.29
2018-11-11T03:51:13.897Z,13.29
2018-11-11T03:53:43.124Z,13.24
2018-11-11T03:56:13.108Z,13.24
2018-11-11T03:58:42.272Z,13.26
2018-11-11T04:01:11.779Z,13.27
2018-11-11T04:03:41.213Z,13.29
2018-11-11T04:06:10.642Z,13.27
2018-11-11T04:08:40.166Z,13.27
2018-11-11T04:11:24.277Z,13.29
2018-11-11T04:13:53.564Z,13.30
2018-11-11T04:16:28.457Z,13.40
2018-11-11T04:18:57.392Z,13.39
2018-11-11T04:21:32.069Z,13.35
2018-11-11T04:24:01.067Z,13.33
2018-11-11T04:26:30.012Z,13.32
2018-11-11T04:28:59.435Z,13.32
2018-11-11T04:31:28.393Z,13.32
2018-11-11T04:33:57.315Z,13.33
2018-11-11T04:36:26.771Z,13.31
2018-11-11T04:38:55.872Z,13.33
2018-11-11T04:41:24.812Z,13.34
2018-11-11T04:43:54.807Z,13.34
2018-11-11T04:46:23.777Z,13.34
2018-11-11T04:48:58.222Z,13.34
2018-11-11T04:51:27.634Z,13.35
2018-11-11T04:53:56.576Z,13.30
2018-11-11T04:56:25.555Z,13.31
2018-11-11T04:58:54.518Z,13.34
2018-11-11T05:01:23.568Z,13.33
2018-11-11T05:03:53.982Z,13.37
2018-11-11T05:06:25.723Z,13.34
2018-11-11T05:08:54.898Z,13.30
2018-11-11T05:11:24.195Z,13.30
2018-11-11T05:13:53.172Z,13.22
2018-11-11T05:16:22.143Z,13.27
2018-11-11T05:18:51.383Z,13.30
2018-11-11T05:24:06.182Z,13.26
2018-11-11T05:26:35.301Z,13.31
2018-11-11T05:29:04.737Z,13.29
2018-11-11T05:31:34.092Z,13.34
2018-11-11T05:34:03.894Z,13.39
2018-11-11T05:36:33.180Z,13.42
2018-11-11T05:39:02.607Z,13.29
2018-11-11T05:41:31.654Z,13.21
2018-11-11T05:44:03.863Z,13.24
2018-11-11T05:46:33.212Z,13.10
2018-11-11T05:49:02.019Z,13.14
2018-11-11T05:51:36.610Z,13.11
2018-11-11T05:54:06.389Z,13.06
2018-11-11T05:56:35.517Z,13.21
2018-11-11T05:59:04.533Z,13.15
2018-11-11T06:01:33.980Z,13.07
2018-11-11T06:04:03.829Z,13.00
2018-11-11T06:06:38.352Z,13.12
2018-11-11T06:09:09.644Z,12.88
2018-11-11T06:11:39.139Z,12.90
2018-11-11T06:14:08.717Z,12.91
2018-11-11T06:16:37.634Z,12.99
2018-11-11T06:19:06.823Z,13.06
2018-11-11T06:21:36.153Z,13.03
2018-11-11T06:24:06.009Z,12.99
2018-11-11T06:26:34.819Z,12.90
2018-11-11T06:29:06.274Z,12.84
2018-11-11T06:31:35.225Z,12.90
2018-11-11T06:34:06.740Z,12.82
2018-11-11T06:36:50.530Z,12.88
2018-11-11T06:39:19.918Z,12.75
2018-11-11T06:41:49.282Z,12.72
2018-11-11T06:44:18.219Z,12.76
2018-11-11T06:46:47.241Z,12.80
2018-11-11T06:49:17.574Z,12.84
2018-11-11T06:51:47.483Z,12.86
2018-11-11T06:54:22.597Z,12.82
2018-11-11T06:56:51.989Z,12.83
2018-11-11T06:59:20.979Z,12.86
2018-11-11T07:02:00.366Z,12.87
2018-11-11T07:04:30.327Z,12.90
2018-11-11T07:06:59.701Z,12.90
2018-11-11T07:09:29.711Z,12.89
2018-11-11T07:12:03.488Z,12.87
2018-11-11T07:14:33.206Z,12.90
2018-11-11T07:17:02.222Z,12.90
2018-11-11T07:19:31.164Z,12.93
2018-11-11T07:22:00.467Z,12.97
2018-11-11T07:24:30.471Z,13.09
2018-11-11T07:26:59.440Z,13.21
2018-11-11T07:29:29.340Z,13.38
2018-11-11T07:31:58.428Z,13.55
2018-11-11T07:34:27.367Z,13.71
2018-11-11T07:36:57.981Z,13.88
2018-11-11T07:39:26.870Z,14.06
2018-11-11T07:42:01.096Z,14.33
2018-11-11T07:44:30.458Z,14.64
2018-11-11T07:46:59.398Z,15.01
2018-11-11T07:49:31.772Z,15.26
2018-11-11T07:52:03.092Z,15.47
2018-11-11T07:54:31.936Z,15.54
2018-11-11T07:57:01.540Z,15.62
2018-11-11T07:59:30.977Z,15.80
2018-11-11T08:02:00.129Z,16.09
2018-11-11T08:04:29.157Z,15.94
2018-11-11T08:06:58.506Z,15.84
2018-11-11T08:09:27.530Z,15.40
2018-11-11T08:11:59.383Z,15.36
2018-11-11T08:14:29.130Z,15.71
2018-11-11T08:16:58.436Z,15.73
2018-11-11T08:19:27.630Z,15.95
2018-11-11T08:21:57.090Z,15.86
2018-11-11T08:24:25.947Z,15.89
2018-11-11T08:26:54.915Z,16.19
2018-11-11T08:29:24.185Z,16.17
2018-11-11T08:31:53.154Z,16.53
2018-11-11T08:34:22.064Z,16.47
2018-11-11T08:36:51.352Z,16.47
2018-11-11T08:39:26.544Z,16.56
2018-11-11T08:41:55.417Z,16.96
2018-11-11T08:44:24.535Z,17.25
2018-11-11T08:46:53.650Z,17.68
2018-11-11T08:49:22.854Z,17.60
2018-11-11T08:51:51.881Z,17.56
2018-11-11T08:54:21.038Z,17.82
2018-11-11T08:56:49.998Z,18.33
2018-11-11T08:59:19.129Z,18.45
2018-11-11T09:01:52.360Z,18.64
2018-11-11T09:04:21.896Z,18.65
2018-11-11T09:06:50.939Z,18.78
2018-11-11T09:09:20.532Z,19.01
2018-11-11T09:11:49.541Z,19.43
2018-11-11T09:14:18.474Z,19.36
2018-11-11T09:16:47.778Z,19.28
2018-11-11T09:19:17.062Z,19.27
2018-11-11T09:21:46.170Z,18.73
2018-11-11T09:24:15.108Z,19.27
2018-11-11T09:26:44.151Z,19.90
2018-11-11T09:29:13.159Z,20.05
2018-11-11T09:31:42.796Z,20.69
2018-11-11T09:34:11.699Z,20.54
2018-11-11T09:36:40.795Z,20.32
2018-11-11T09:39:11.380Z,20.08
2018-11-11T09:41:40.755Z,20.89
2018-11-11T09:44:09.801Z,20.83
2018-11-11T09:46:39.117Z,20.58
2018-11-11T09:49:08.122Z,21.07
2018-11-11T09:51:37.235Z,21.32
2018-11-11T09:54:07.270Z,21.46
2018-11-11T09:56:36.840Z,21.19
2018-11-11T10:01:12.420Z,21.12
2018-11-11T10:03:49.333Z,21.39
2018-11-11T10:06:24.960Z,21.20
2018-11-11T10:09:01.404Z,21.16
2018-11-11T10:11:37.994Z,21.39
2018-11-11T10:14:17.074Z,21.06
2018-11-11T10:16:57.646Z,20.50
2018-11-11T10:19:36.697Z,21.14
2018-11-11T10:26:30.305Z,21.67
2018-11-11T10:29:33.886Z,21.92
2018-11-11T10:34:57.373Z,21.79
2018-11-11T10:37:31.340Z,22.12
2018-11-11T10:40:05.758Z,21.47
2018-11-11T10:42:41.920Z,21.60
